sensor_id;sensor_type;location;lat;lon;timestamp;P1;durP1;ratioP1;P2;durP2;ratioP2
43325;SDS011;28920;59.862;30.636;2023-01-30T00:01:42;6.90;;;4.03;;
43325;SDS011;28920;59.862;30.636;2023-01-30T00:04:09;6.37;;;3.90;;
43325;SDS011;28920;59.862;30.636;2023-01-30T00:06:38;4.10;;;3.12;;
43325;SDS011;28920;59.862;30.636;2023-01-30T00:09:05;5.15;;;3.30;;
43325;SDS011;28920;59.862;30.636;2023-01-30T00:11:31;5.57;;;3.62;;
43325;SDS011;28920;59.862;30.636;2023-01-30T00:13:58;5.18;;;2.97;;
43325;SDS011;28920;59.862;30.636;2023-01-30T00:16:25;3.75;;;3.20;;
43325;SDS011;28920;59.862;30.636;2023-01-30T00:18:52;4.90;;;3.10;;
43325;SDS011;28920;59.862;30.636;2023-01-30T00:21:19;5.35;;;3.78;;
43325;SDS011;28920;59.862;30.636;2023-01-30T00:23:46;5.07;;;3.42;;
43325;SDS011;28920;59.862;30.636;2023-01-30T00:26:13;3.17;;;2.58;;
43325;SDS011;28920;59.862;30.636;2023-01-30T00:28:39;6.75;;;3.35;;
43325;SDS011;28920;59.862;30.636;2023-01-30T00:31:06;6.72;;;3.10;;
43325;SDS011;28920;59.862;30.636;2023-01-30T00:33:34;4.20;;;2.80;;
43325;SDS011;28920;59.862;30.636;2023-01-30T00:36:01;3.85;;;2.80;;
43325;SDS011;28920;59.862;30.636;2023-01-30T00:38:27;5.03;;;3.62;;
43325;SDS011;28920;59.862;30.636;2023-01-30T00:40:55;4.22;;;3.30;;
43325;SDS011;28920;59.862;30.636;2023-01-30T00:43:22;4.65;;;3.15;;
43325;SDS011;28920;59.862;30.636;2023-01-30T00:46:09;4.72;;;3.58;;
43325;SDS011;28920;59.862;30.636;2023-01-30T00:48:56;5.65;;;3.37;;
43325;SDS011;28920;59.862;30.636;2023-01-30T00:51:23;5.35;;;3.17;;
43325;SDS011;28920;59.862;30.636;2023-01-30T00:53:49;4.87;;;3.58;;
43325;SDS011;28920;59.862;30.636;2023-01-30T00:56:17;7.00;;;3.53;;
43325;SDS011;28920;59.862;30.636;2023-01-30T00:58:43;3.72;;;2.53;;
43325;SDS011;28920;59.862;30.636;2023-01-30T01:01:10;3.35;;;2.30;;
43325;SDS011;28920;59.862;30.636;2023-01-30T01:03:36;3.80;;;2.90;;
43325;SDS011;28920;59.862;30.636;2023-01-30T01:06:04;3.55;;;2.55;;
43325;SDS011;28920;59.862;30.636;2023-01-30T01:08:31;3.83;;;3.25;;
43325;SDS011;28920;59.862;30.636;2023-01-30T01:10:57;4.37;;;3.03;;
43325;SDS011;28920;59.862;30.636;2023-01-30T01:13:25;4.43;;;2.90;;
43325;SDS011;28920;59.862;30.636;2023-01-30T01:15:52;4.05;;;2.35;;
43325;SDS011;28920;59.862;30.636;2023-01-30T01:18:18;3.70;;;2.37;;
43325;SDS011;28920;59.862;30.636;2023-01-30T01:20:45;3.45;;;2.58;;
43325;SDS011;28920;59.862;30.636;2023-01-30T01:23:12;4.00;;;2.67;;
43325;SDS011;28920;59.862;30.636;2023-01-30T01:25:39;4.87;;;2.97;;
43325;SDS011;28920;59.862;30.636;2023-01-30T01:28:06;3.03;;;2.20;;
43325;SDS011;28920;59.862;30.636;2023-01-30T01:30:33;3.78;;;2.55;;
43325;SDS011;28920;59.862;30.636;2023-01-30T01:32:59;3.30;;;2.45;;
43325;SDS011;28920;59.862;30.636;2023-01-30T01:35:27;3.17;;;2.22;;
43325;SDS011;28920;59.862;30.636;2023-01-30T01:37:53;3.35;;;2.33;;
43325;SDS011;28920;59.862;30.636;2023-01-30T01:40:21;4.25;;;2.83;;
43325;SDS011;28920;59.862;30.636;2023-01-30T01:43:15;2.90;;;2.00;;
43325;SDS011;28920;59.862;30.636;2023-01-30T01:45:45;4.25;;;2.55;;
43325;SDS011;28920;59.862;30.636;2023-01-30T01:48:14;2.95;;;2.10;;
43325;SDS011;28920;59.862;30.636;2023-01-30T01:50:43;3.30;;;2.15;;
43325;SDS011;28920;59.862;30.636;2023-01-30T01:53:10;2.90;;;1.92;;
43325;SDS011;28920;59.862;30.636;2023-01-30T01:55:37;2.15;;;1.70;;
43325;SDS011;28920;59.862;30.636;2023-01-30T01:58:06;2.65;;;1.83;;
43325;SDS011;28920;59.862;30.636;2023-01-30T02:00:35;2.90;;;1.85;;
43325;SDS011;28920;59.862;30.636;2023-01-30T02:03:03;2.95;;;2.05;;
43325;SDS011;28920;59.862;30.636;2023-01-30T02:05:32;2.95;;;1.90;;
43325;SDS011;28920;59.862;30.636;2023-01-30T02:07:59;3.28;;;1.95;;
43325;SDS011;28920;59.862;30.636;2023-01-30T02:10:29;2.03;;;1.60;;
43325;SDS011;28920;59.862;30.636;2023-01-30T02:12:57;2.55;;;1.55;;
43325;SDS011;28920;59.862;30.636;2023-01-30T02:15:24;2.05;;;1.73;;
43325;SDS011;28920;59.862;30.636;2023-01-30T02:17:51;2.83;;;1.85;;
43325;SDS011;28920;59.862;30.636;2023-01-30T02:20:22;3.78;;;1.80;;
43325;SDS011;28920;59.862;30.636;2023-01-30T02:25:46;3.08;;;1.77;;
43325;SDS011;28920;59.862;30.636;2023-01-30T02:30:58;1.60;;;1.20;;
43325;SDS011;28920;59.862;30.636;2023-01-30T02:33:28;2.12;;;1.45;;
43325;SDS011;28920;59.862;30.636;2023-01-30T02:35:58;1.92;;;1.33;;
43325;SDS011;28920;59.862;30.636;2023-01-30T02:38:32;2.35;;;1.60;;
43325;SDS011;28920;59.862;30.636;2023-01-30T02:41:01;2.55;;;1.48;;
43325;SDS011;28920;59.862;30.636;2023-01-30T02:43:35;1.95;;;1.60;;
43325;SDS011;28920;59.862;30.636;2023-01-30T02:46:07;2.00;;;1.55;;
43325;SDS011;28920;59.862;30.636;2023-01-30T02:48:37;2.62;;;1.52;;
43325;SDS011;28920;59.862;30.636;2023-01-30T02:51:06;3.37;;;1.80;;
43325;SDS011;28920;59.862;30.636;2023-01-30T02:53:35;1.50;;;1.20;;
43325;SDS011;28920;59.862;30.636;2023-01-30T02:56:03;1.85;;;1.42;;
43325;SDS011;28920;59.862;30.636;2023-01-30T02:58:31;1.30;;;1.08;;
43325;SDS011;28920;59.862;30.636;2023-01-30T03:01:05;1.30;;;1.00;;
43325;SDS011;28920;59.862;30.636;2023-01-30T03:03:42;1.25;;;0.90;;
43325;SDS011;28920;59.862;30.636;2023-01-30T03:06:27;1.40;;;0.95;;
43325;SDS011;28920;59.862;30.636;2023-01-30T03:09:00;1.37;;;1.10;;
43325;SDS011;28920;59.862;30.636;2023-01-30T03:11:30;1.73;;;1.50;;
43325;SDS011;28920;59.862;30.636;2023-01-30T03:14:01;1.40;;;1.10;;
43325;SDS011;28920;59.862;30.636;2023-01-30T03:16:30;1.85;;;1.10;;
43325;SDS011;28920;59.862;30.636;2023-01-30T03:18:59;1.05;;;0.77;;
43325;SDS011;28920;59.862;30.636;2023-01-30T03:21:26;1.55;;;1.00;;
43325;SDS011;28920;59.862;30.636;2023-01-30T03:23:53;2.67;;;1.90;;
43325;SDS011;28920;59.862;30.636;2023-01-30T03:26:20;1.55;;;0.93;;
43325;SDS011;28920;59.862;30.636;2023-01-30T03:28:49;1.35;;;0.95;;
43325;SDS011;28920;59.862;30.636;2023-01-30T03:31:16;1.83;;;0.98;;
43325;SDS011;28920;59.862;30.636;2023-01-30T03:33:42;1.23;;;0.75;;
43325;SDS011;28920;59.862;30.636;2023-01-30T03:36:10;1.58;;;1.05;;
43325;SDS011;28920;59.862;30.636;2023-01-30T03:38:37;1.42;;;1.10;;
43325;SDS011;28920;59.862;30.636;2023-01-30T03:41:04;1.23;;;1.00;;
43325;SDS011;28920;59.862;30.636;2023-01-30T03:43:31;1.02;;;0.80;;
43325;SDS011;28920;59.862;30.636;2023-01-30T03:45:59;1.65;;;0.68;;
43325;SDS011;28920;59.862;30.636;2023-01-30T03:48:27;0.95;;;0.85;;
43325;SDS011;28920;59.862;30.636;2023-01-30T03:50:54;1.52;;;1.02;;
43325;SDS011;28920;59.862;30.636;2023-01-30T03:53:22;1.30;;;0.90;;
43325;SDS011;28920;59.862;30.636;2023-01-30T03:55:49;0.82;;;0.80;;
43325;SDS011;28920;59.862;30.636;2023-01-30T03:58:18;1.15;;;0.88;;
43325;SDS011;28920;59.862;30.636;2023-01-30T04:00:45;1.10;;;1.00;;
43325;SDS011;28920;59.862;30.636;2023-01-30T04:03:12;1.83;;;0.80;;
43325;SDS011;28920;59.862;30.636;2023-01-30T04:05:41;0.93;;;0.75;;
43325;SDS011;28920;59.862;30.636;2023-01-30T04:08:08;1.25;;;0.70;;
43325;SDS011;28920;59.862;30.636;2023-01-30T04:10:36;1.12;;;0.77;;
43325;SDS011;28920;59.862;30.636;2023-01-30T04:13:02;1.65;;;1.05;;
43325;SDS011;28920;59.862;30.636;2023-01-30T04:15:30;0.95;;;0.70;;
43325;SDS011;28920;59.862;30.636;2023-01-30T04:17:58;1.58;;;1.00;;
43325;SDS011;28920;59.862;30.636;2023-01-30T04:20:26;1.48;;;0.65;;
43325;SDS011;28920;59.862;30.636;2023-01-30T04:22:54;1.05;;;0.60;;
43325;SDS011;28920;59.862;30.636;2023-01-30T04:25:21;1.10;;;0.75;;
43325;SDS011;28920;59.862;30.636;2023-01-30T04:27:48;0.90;;;0.60;;
43325;SDS011;28920;59.862;30.636;2023-01-30T04:30:16;0.98;;;0.55;;
43325;SDS011;28920;59.862;30.636;2023-01-30T04:32:43;0.80;;;0.60;;
43325;SDS011;28920;59.862;30.636;2023-01-30T04:35:10;0.60;;;0.60;;
43325;SDS011;28920;59.862;30.636;2023-01-30T04:37:37;1.12;;;0.70;;
43325;SDS011;28920;59.862;30.636;2023-01-30T04:40:05;1.55;;;0.88;;
43325;SDS011;28920;59.862;30.636;2023-01-30T04:42:33;1.00;;;0.70;;
43325;SDS011;28920;59.862;30.636;2023-01-30T04:45:02;0.65;;;0.60;;
43325;SDS011;28920;59.862;30.636;2023-01-30T04:47:30;1.30;;;0.80;;
43325;SDS011;28920;59.862;30.636;2023-01-30T04:49:57;1.65;;;0.73;;
43325;SDS011;28920;59.862;30.636;2023-01-30T04:52:24;1.20;;;0.82;;
43325;SDS011;28920;59.862;30.636;2023-01-30T04:54:52;0.70;;;0.60;;
43325;SDS011;28920;59.862;30.636;2023-01-30T04:57:18;0.95;;;0.60;;
43325;SDS011;28920;59.862;30.636;2023-01-30T04:59:45;0.50;;;0.35;;
43325;SDS011;28920;59.862;30.636;2023-01-30T05:02:13;1.10;;;0.62;;
43325;SDS011;28920;59.862;30.636;2023-01-30T05:04:40;0.60;;;0.50;;
43325;SDS011;28920;59.862;30.636;2023-01-30T05:07:06;0.80;;;0.70;;
43325;SDS011;28920;59.862;30.636;2023-01-30T05:09:34;1.42;;;0.77;;
43325;SDS011;28920;59.862;30.636;2023-01-30T05:12:00;1.37;;;0.82;;
43325;SDS011;28920;59.862;30.636;2023-01-30T05:14:27;2.67;;;2.22;;
43325;SDS011;28920;59.862;30.636;2023-01-30T05:16:53;2.50;;;1.58;;
43325;SDS011;28920;59.862;30.636;2023-01-30T05:19:21;1.75;;;1.10;;
43325;SDS011;28920;59.862;30.636;2023-01-30T05:21:47;1.85;;;1.25;;
43325;SDS011;28920;59.862;30.636;2023-01-30T05:24:14;3.70;;;2.20;;
43325;SDS011;28920;59.862;30.636;2023-01-30T05:26:41;7.12;;;3.67;;
43325;SDS011;28920;59.862;30.636;2023-01-30T05:29:08;8.38;;;4.57;;
43325;SDS011;28920;59.862;30.636;2023-01-30T05:31:35;7.20;;;4.10;;
43325;SDS011;28920;59.862;30.636;2023-01-30T05:34:03;7.95;;;4.85;;
43325;SDS011;28920;59.862;30.636;2023-01-30T05:36:30;13.23;;;5.75;;
43325;SDS011;28920;59.862;30.636;2023-01-30T05:38:57;10.45;;;6.30;;
43325;SDS011;28920;59.862;30.636;2023-01-30T05:41:24;9.80;;;6.62;;
43325;SDS011;28920;59.862;30.636;2023-01-30T05:43:50;7.12;;;4.32;;
43325;SDS011;28920;59.862;30.636;2023-01-30T05:46:17;7.18;;;4.70;;
43325;SDS011;28920;59.862;30.636;2023-01-30T05:48:44;5.75;;;3.60;;
43325;SDS011;28920;59.862;30.636;2023-01-30T05:51:14;5.53;;;3.55;;
43325;SDS011;28920;59.862;30.636;2023-01-30T05:53:42;6.22;;;4.50;;
43325;SDS011;28920;59.862;30.636;2023-01-30T05:56:08;7.25;;;4.50;;
43325;SDS011;28920;59.862;30.636;2023-01-30T05:58:35;8.95;;;5.18;;
43325;SDS011;28920;59.862;30.636;2023-01-30T06:01:03;6.20;;;3.67;;
43325;SDS011;28920;59.862;30.636;2023-01-30T06:03:31;5.90;;;3.97;;
43325;SDS011;28920;59.862;30.636;2023-01-30T06:05:57;7.57;;;5.53;;
43325;SDS011;28920;59.862;30.636;2023-01-30T06:08:24;6.87;;;4.20;;
43325;SDS011;28920;59.862;30.636;2023-01-30T06:10:52;5.30;;;3.62;;
43325;SDS011;28920;59.862;30.636;2023-01-30T06:13:19;11.70;;;7.20;;
43325;SDS011;28920;59.862;30.636;2023-01-30T06:15:46;4.78;;;4.12;;
43325;SDS011;28920;59.862;30.636;2023-01-30T06:18:13;6.22;;;4.22;;
43325;SDS011;28920;59.862;30.636;2023-01-30T06:20:39;4.72;;;3.30;;
43325;SDS011;28920;59.862;30.636;2023-01-30T06:23:06;7.75;;;3.72;;
43325;SDS011;28920;59.862;30.636;2023-01-30T06:25:33;4.78;;;3.03;;
43325;SDS011;28920;59.862;30.636;2023-01-30T06:28:00;4.40;;;3.40;;
43325;SDS011;28920;59.862;30.636;2023-01-30T06:30:27;4.80;;;3.28;;
43325;SDS011;28920;59.862;30.636;2023-01-30T06:32:54;5.40;;;3.45;;
43325;SDS011;28920;59.862;30.636;2023-01-30T06:35:20;2.90;;;2.20;;
43325;SDS011;28920;59.862;30.636;2023-01-30T06:37:47;3.30;;;2.10;;
43325;SDS011;28920;59.862;30.636;2023-01-30T06:40:14;3.53;;;2.20;;
43325;SDS011;28920;59.862;30.636;2023-01-30T06:42:44;3.47;;;2.30;;
43325;SDS011;28920;59.862;30.636;2023-01-30T06:45:11;3.22;;;1.73;;
43325;SDS011;28920;59.862;30.636;2023-01-30T06:47:43;2.47;;;1.60;;
43325;SDS011;28920;59.862;30.636;2023-01-30T06:50:10;1.58;;;1.12;;
43325;SDS011;28920;59.862;30.636;2023-01-30T06:52:39;2.05;;;1.12;;
43325;SDS011;28920;59.862;30.636;2023-01-30T06:55:06;2.62;;;1.00;;
43325;SDS011;28920;59.862;30.636;2023-01-30T06:57:33;1.75;;;0.98;;
43325;SDS011;28920;59.862;30.636;2023-01-30T07:00:00;1.92;;;1.40;;
43325;SDS011;28920;59.862;30.636;2023-01-30T07:02:29;1.92;;;1.27;;
43325;SDS011;28920;59.862;30.636;2023-01-30T07:04:59;4.10;;;1.15;;
43325;SDS011;28920;59.862;30.636;2023-01-30T07:07:26;1.85;;;0.75;;
43325;SDS011;28920;59.862;30.636;2023-01-30T07:09:53;3.42;;;1.48;;
43325;SDS011;28920;59.862;30.636;2023-01-30T07:12:19;2.45;;;0.85;;
43325;SDS011;28920;59.862;30.636;2023-01-30T07:14:46;2.28;;;1.33;;
43325;SDS011;28920;59.862;30.636;2023-01-30T07:17:13;1.55;;;0.80;;
43325;SDS011;28920;59.862;30.636;2023-01-30T07:19:41;2.42;;;0.98;;
43325;SDS011;28920;59.862;30.636;2023-01-30T07:22:08;3.25;;;1.12;;
43325;SDS011;28920;59.862;30.636;2023-01-30T07:24:35;1.60;;;0.90;;
43325;SDS011;28920;59.862;30.636;2023-01-30T07:27:01;1.45;;;0.60;;
43325;SDS011;28920;59.862;30.636;2023-01-30T07:29:28;2.42;;;1.10;;
43325;SDS011;28920;59.862;30.636;2023-01-30T07:31:55;1.33;;;0.80;;
43325;SDS011;28920;59.862;30.636;2023-01-30T07:34:21;2.12;;;0.75;;
43325;SDS011;28920;59.862;30.636;2023-01-30T07:36:49;1.10;;;0.70;;
43325;SDS011;28920;59.862;30.636;2023-01-30T07:39:16;1.98;;;1.40;;
43325;SDS011;28920;59.862;30.636;2023-01-30T07:41:42;1.95;;;1.08;;
43325;SDS011;28920;59.862;30.636;2023-01-30T07:44:09;1.37;;;0.70;;
43325;SDS011;28920;59.862;30.636;2023-01-30T07:46:36;3.25;;;1.85;;
43325;SDS011;28920;59.862;30.636;2023-01-30T07:49:03;0.95;;;0.68;;
43325;SDS011;28920;59.862;30.636;2023-01-30T07:51:30;4.35;;;1.10;;
43325;SDS011;28920;59.862;30.636;2023-01-30T07:53:57;1.62;;;0.95;;
43325;SDS011;28920;59.862;30.636;2023-01-30T07:56:25;2.80;;;1.15;;
43325;SDS011;28920;59.862;30.636;2023-01-30T07:58:53;0.90;;;0.77;;
43325;SDS011;28920;59.862;30.636;2023-01-30T08:01:20;2.62;;;1.80;;
43325;SDS011;28920;59.862;30.636;2023-01-30T08:03:47;6.75;;;2.90;;
43325;SDS011;28920;59.862;30.636;2023-01-30T08:06:14;1.02;;;0.93;;
43325;SDS011;28920;59.862;30.636;2023-01-30T08:08:41;1.15;;;0.90;;
43325;SDS011;28920;59.862;30.636;2023-01-30T08:11:08;2.22;;;1.40;;
43325;SDS011;28920;59.862;30.636;2023-01-30T08:13:35;1.87;;;1.75;;
43325;SDS011;28920;59.862;30.636;2023-01-30T08:16:02;2.10;;;0.93;;
43325;SDS011;28920;59.862;30.636;2023-01-30T08:18:29;2.00;;;1.30;;
43325;SDS011;28920;59.862;30.636;2023-01-30T08:20:56;1.33;;;0.77;;
43325;SDS011;28920;59.862;30.636;2023-01-30T08:23:23;1.87;;;0.80;;
43325;SDS011;28920;59.862;30.636;2023-01-30T08:25:52;1.35;;;0.80;;
43325;SDS011;28920;59.862;30.636;2023-01-30T08:28:20;2.03;;;1.15;;
43325;SDS011;28920;59.862;30.636;2023-01-30T08:30:46;1.20;;;0.80;;
43325;SDS011;28920;59.862;30.636;2023-01-30T08:33:14;0.80;;;0.80;;
43325;SDS011;28920;59.862;30.636;2023-01-30T08:35:40;2.08;;;0.77;;
43325;SDS011;28920;59.862;30.636;2023-01-30T08:38:07;0.90;;;0.80;;
43325;SDS011;28920;59.862;30.636;2023-01-30T08:40:34;1.27;;;1.08;;
43325;SDS011;28920;59.862;30.636;2023-01-30T08:43:01;1.17;;;0.93;;
43325;SDS011;28920;59.862;30.636;2023-01-30T08:45:28;1.17;;;0.70;;
43325;SDS011;28920;59.862;30.636;2023-01-30T08:47:56;9.13;;;4.03;;
43325;SDS011;28920;59.862;30.636;2023-01-30T08:50:23;3.90;;;2.28;;
43325;SDS011;28920;59.862;30.636;2023-01-30T08:52:49;5.15;;;1.75;;
43325;SDS011;28920;59.862;30.636;2023-01-30T08:55:16;3.92;;;1.90;;
43325;SDS011;28920;59.862;30.636;2023-01-30T08:57:43;3.03;;;1.45;;
43325;SDS011;28920;59.862;30.636;2023-01-30T09:00:12;3.20;;;1.23;;
43325;SDS011;28920;59.862;30.636;2023-01-30T09:02:39;1.90;;;1.00;;
43325;SDS011;28920;59.862;30.636;2023-01-30T09:05:06;3.80;;;1.25;;
43325;SDS011;28920;59.862;30.636;2023-01-30T09:07:33;2.45;;;1.40;;
43325;SDS011;28920;59.862;30.636;2023-01-30T09:10:00;3.78;;;1.70;;
43325;SDS011;28920;59.862;30.636;2023-01-30T09:12:27;3.08;;;2.08;;
43325;SDS011;28920;59.862;30.636;2023-01-30T09:14:53;4.43;;;1.75;;
43325;SDS011;28920;59.862;30.636;2023-01-30T09:17:20;3.08;;;1.75;;
43325;SDS011;28920;59.862;30.636;2023-01-30T09:19:48;5.47;;;2.00;;
43325;SDS011;28920;59.862;30.636;2023-01-30T09:22:14;5.37;;;3.00;;
43325;SDS011;28920;59.862;30.636;2023-01-30T09:24:41;4.22;;;2.40;;
43325;SDS011;28920;59.862;30.636;2023-01-30T09:27:08;4.80;;;2.20;;
43325;SDS011;28920;59.862;30.636;2023-01-30T09:29:35;3.37;;;1.83;;
43325;SDS011;28920;59.862;30.636;2023-01-30T09:32:02;4.57;;;2.42;;
43325;SDS011;28920;59.862;30.636;2023-01-30T09:34:29;4.78;;;2.08;;
43325;SDS011;28920;59.862;30.636;2023-01-30T09:36:56;4.37;;;1.70;;
43325;SDS011;28920;59.862;30.636;2023-01-30T09:39:25;5.32;;;3.28;;
43325;SDS011;28920;59.862;30.636;2023-01-30T09:44:40;2.97;;;1.85;;
43325;SDS011;28920;59.862;30.636;2023-01-30T09:47:10;3.85;;;2.10;;
43325;SDS011;28920;59.862;30.636;2023-01-30T09:49:39;6.62;;;4.18;;
43325;SDS011;28920;59.862;30.636;2023-01-30T09:52:14;7.50;;;3.60;;
43325;SDS011;28920;59.862;30.636;2023-01-30T09:54:46;6.30;;;3.58;;
43325;SDS011;28920;59.862;30.636;2023-01-30T09:57:15;6.93;;;4.37;;
43325;SDS011;28920;59.862;30.636;2023-01-30T09:59:44;4.70;;;3.17;;
43325;SDS011;28920;59.862;30.636;2023-01-30T10:02:19;5.35;;;2.97;;
43325;SDS011;28920;59.862;30.636;2023-01-30T10:04:49;4.25;;;2.65;;
43325;SDS011;28920;59.862;30.636;2023-01-30T10:07:20;5.35;;;3.87;;
43325;SDS011;28920;59.862;30.636;2023-01-30T10:09:50;5.80;;;3.33;;
43325;SDS011;28920;59.862;30.636;2023-01-30T10:12:30;7.82;;;4.15;;
43325;SDS011;28920;59.862;30.636;2023-01-30T10:17:48;3.37;;;1.70;;
43325;SDS011;28920;59.862;30.636;2023-01-30T10:20:29;2.10;;;1.60;;
43325;SDS011;28920;59.862;30.636;2023-01-30T10:23:01;6.15;;;2.87;;
43325;SDS011;28920;59.862;30.636;2023-01-30T10:25:31;7.47;;;4.03;;
43325;SDS011;28920;59.862;30.636;2023-01-30T10:28:00;26.20;;;9.90;;
43325;SDS011;28920;59.862;30.636;2023-01-30T10:30:27;3.70;;;2.08;;
43325;SDS011;28920;59.862;30.636;2023-01-30T10:32:56;1.75;;;1.30;;
43325;SDS011;28920;59.862;30.636;2023-01-30T10:35:26;4.07;;;1.90;;
43325;SDS011;28920;59.862;30.636;2023-01-30T10:37:57;2.72;;;1.25;;
43325;SDS011;28920;59.862;30.636;2023-01-30T10:40:25;3.87;;;1.83;;
43325;SDS011;28920;59.862;30.636;2023-01-30T10:42:55;5.32;;;2.12;;
43325;SDS011;28920;59.862;30.636;2023-01-30T10:45:26;3.55;;;2.22;;
43325;SDS011;28920;59.862;30.636;2023-01-30T10:47:58;4.40;;;1.70;;
43325;SDS011;28920;59.862;30.636;2023-01-30T10:50:28;3.83;;;2.10;;
43325;SDS011;28920;59.862;30.636;2023-01-30T10:52:56;4.95;;;2.75;;
43325;SDS011;28920;59.862;30.636;2023-01-30T10:55:28;3.65;;;1.45;;
43325;SDS011;28920;59.862;30.636;2023-01-30T10:57:57;5.87;;;1.83;;
43325;SDS011;28920;59.862;30.636;2023-01-30T11:00:27;3.78;;;1.42;;
43325;SDS011;28920;59.862;30.636;2023-01-30T11:03:02;4.18;;;1.80;;
43325;SDS011;28920;59.862;30.636;2023-01-30T11:05:32;4.35;;;1.98;;
43325;SDS011;28920;59.862;30.636;2023-01-30T11:08:05;6.53;;;2.90;;
43325;SDS011;28920;59.862;30.636;2023-01-30T11:10:36;7.90;;;3.33;;
43325;SDS011;28920;59.862;30.636;2023-01-30T11:13:09;3.35;;;2.00;;
43325;SDS011;28920;59.862;30.636;2023-01-30T11:15:39;3.95;;;2.35;;
43325;SDS011;28920;59.862;30.636;2023-01-30T11:18:06;7.97;;;4.43;;
43325;SDS011;28920;59.862;30.636;2023-01-30T11:20:37;6.37;;;2.92;;
43325;SDS011;28920;59.862;30.636;2023-01-30T11:23:05;8.90;;;4.28;;
43325;SDS011;28920;59.862;30.636;2023-01-30T11:25:32;6.12;;;3.62;;
43325;SDS011;28920;59.862;30.636;2023-01-30T11:28:12;6.00;;;3.00;;
43325;SDS011;28920;59.862;30.636;2023-01-30T11:30:40;6.90;;;3.85;;
43325;SDS011;28920;59.862;30.636;2023-01-30T11:33:10;5.90;;;2.95;;
43325;SDS011;28920;59.862;30.636;2023-01-30T11:35:39;7.40;;;3.47;;
43325;SDS011;28920;59.862;30.636;2023-01-30T11:38:11;7.28;;;3.47;;
43325;SDS011;28920;59.862;30.636;2023-01-30T11:40:38;4.97;;;2.87;;
43325;SDS011;28920;59.862;30.636;2023-01-30T11:43:09;3.45;;;1.67;;
43325;SDS011;28920;59.862;30.636;2023-01-30T11:45:37;3.90;;;1.93;;
43325;SDS011;28920;59.862;30.636;2023-01-30T11:48:09;4.62;;;2.03;;
43325;SDS011;28920;59.862;30.636;2023-01-30T11:50:38;2.15;;;1.45;;
43325;SDS011;28920;59.862;30.636;2023-01-30T11:53:12;3.42;;;1.40;;
43325;SDS011;28920;59.862;30.636;2023-01-30T11:55:40;2.22;;;1.10;;
43325;SDS011;28920;59.862;30.636;2023-01-30T11:58:07;4.37;;;1.30;;
43325;SDS011;28920;59.862;30.636;2023-01-30T12:00:39;1.80;;;1.10;;
43325;SDS011;28920;59.862;30.636;2023-01-30T12:03:09;3.17;;;1.00;;
43325;SDS011;28920;59.862;30.636;2023-01-30T12:05:37;1.60;;;1.00;;
43325;SDS011;28920;59.862;30.636;2023-01-30T12:08:11;2.72;;;1.50;;
43325;SDS011;28920;59.862;30.636;2023-01-30T12:10:39;1.85;;;1.17;;
43325;SDS011;28920;59.862;30.636;2023-01-30T12:13:08;1.42;;;0.90;;
43325;SDS011;28920;59.862;30.636;2023-01-30T12:15:40;1.10;;;0.88;;
43325;SDS011;28920;59.862;30.636;2023-01-30T12:18:12;2.22;;;0.85;;
43325;SDS011;28920;59.862;30.636;2023-01-30T12:20:48;1.95;;;0.77;;
43325;SDS011;28920;59.862;30.636;2023-01-30T12:23:20;3.78;;;1.67;;
43325;SDS011;28920;59.862;30.636;2023-01-30T12:25:54;4.25;;;1.10;;
43325;SDS011;28920;59.862;30.636;2023-01-30T12:28:23;1.65;;;0.80;;
43325;SDS011;28920;59.862;30.636;2023-01-30T12:33:27;1.83;;;0.68;;
43325;SDS011;28920;59.862;30.636;2023-01-30T12:35:58;3.90;;;0.98;;
43325;SDS011;28920;59.862;30.636;2023-01-30T12:38:30;1.67;;;0.60;;
43325;SDS011;28920;59.862;30.636;2023-01-30T12:41:02;1.52;;;0.90;;
43325;SDS011;28920;59.862;30.636;2023-01-30T12:43:33;2.75;;;0.65;;
43325;SDS011;28920;59.862;30.636;2023-01-30T12:46:06;2.20;;;0.90;;
43325;SDS011;28920;59.862;30.636;2023-01-30T12:51:07;4.20;;;0.90;;
43325;SDS011;28920;59.862;30.636;2023-01-30T12:53:38;1.85;;;0.90;;
43325;SDS011;28920;59.862;30.636;2023-01-30T12:56:15;1.80;;;0.80;;
43325;SDS011;28920;59.862;30.636;2023-01-30T12:58:45;5.03;;;1.45;;
43325;SDS011;28920;59.862;30.636;2023-01-30T13:01:15;3.58;;;1.80;;
43325;SDS011;28920;59.862;30.636;2023-01-30T13:03:49;1.48;;;0.85;;
43325;SDS011;28920;59.862;30.636;2023-01-30T13:06:24;1.92;;;0.93;;
43325;SDS011;28920;59.862;30.636;2023-01-30T13:08:53;2.25;;;0.90;;
43325;SDS011;28920;59.862;30.636;2023-01-30T13:11:29;2.92;;;1.15;;
43325;SDS011;28920;59.862;30.636;2023-01-30T13:14:00;1.33;;;0.82;;
43325;SDS011;28920;59.862;30.636;2023-01-30T13:16:31;2.65;;;1.20;;
43325;SDS011;28920;59.862;30.636;2023-01-30T13:21:31;1.48;;;1.00;;
43325;SDS011;28920;59.862;30.636;2023-01-30T13:24:03;1.77;;;1.08;;
43325;SDS011;28920;59.862;30.636;2023-01-30T13:26:33;2.60;;;1.15;;
43325;SDS011;28920;59.862;30.636;2023-01-30T13:29:01;2.55;;;1.30;;
43325;SDS011;28920;59.862;30.636;2023-01-30T13:31:29;1.62;;;0.95;;
43325;SDS011;28920;59.862;30.636;2023-01-30T13:34:06;4.32;;;1.80;;
43325;SDS011;28920;59.862;30.636;2023-01-30T13:36:38;1.85;;;1.37;;
43325;SDS011;28920;59.862;30.636;2023-01-30T13:39:09;1.30;;;1.10;;
43325;SDS011;28920;59.862;30.636;2023-01-30T13:41:39;3.42;;;1.83;;
43325;SDS011;28920;59.862;30.636;2023-01-30T13:44:12;1.83;;;1.52;;
43325;SDS011;28920;59.862;30.636;2023-01-30T13:46:41;1.83;;;1.23;;
43325;SDS011;28920;59.862;30.636;2023-01-30T13:49:08;2.50;;;2.00;;
43325;SDS011;28920;59.862;30.636;2023-01-30T13:51:42;3.23;;;1.70;;
43325;SDS011;28920;59.862;30.636;2023-01-30T13:54:14;3.30;;;1.55;;
43325;SDS011;28920;59.862;30.636;2023-01-30T13:56:45;2.72;;;1.70;;
43325;SDS011;28920;59.862;30.636;2023-01-30T13:59:15;2.80;;;1.40;;
43325;SDS011;28920;59.862;30.636;2023-01-30T14:04:43;2.25;;;1.52;;
43325;SDS011;28920;59.862;30.636;2023-01-30T14:07:12;4.05;;;2.55;;
43325;SDS011;28920;59.862;30.636;2023-01-30T14:09:42;4.90;;;1.62;;
43325;SDS011;28920;59.862;30.636;2023-01-30T14:12:14;2.55;;;1.60;;
43325;SDS011;28920;59.862;30.636;2023-01-30T14:14:42;2.50;;;1.83;;
43325;SDS011;28920;59.862;30.636;2023-01-30T14:17:21;4.53;;;2.72;;
43325;SDS011;28920;59.862;30.636;2023-01-30T14:19:56;4.15;;;2.55;;
43325;SDS011;28920;59.862;30.636;2023-01-30T14:22:25;3.53;;;2.40;;
43325;SDS011;28920;59.862;30.636;2023-01-30T14:27:38;4.55;;;2.62;;
43325;SDS011;28920;59.862;30.636;2023-01-30T14:30:25;4.32;;;2.58;;
43325;SDS011;28920;59.862;30.636;2023-01-30T14:32:59;3.22;;;2.17;;
43325;SDS011;28920;59.862;30.636;2023-01-30T14:35:27;3.95;;;3.00;;
43325;SDS011;28920;59.862;30.636;2023-01-30T14:41:05;2.85;;;2.25;;
43325;SDS011;28920;59.862;30.636;2023-01-30T14:43:37;3.22;;;1.85;;
43325;SDS011;28920;59.862;30.636;2023-01-30T14:46:04;4.53;;;3.50;;
43325;SDS011;28920;59.862;30.636;2023-01-30T14:48:32;3.58;;;2.25;;
43325;SDS011;28920;59.862;30.636;2023-01-30T14:53:53;3.70;;;3.00;;
43325;SDS011;28920;59.862;30.636;2023-01-30T14:56:30;6.07;;;3.05;;
43325;SDS011;28920;59.862;30.636;2023-01-30T14:59:00;6.00;;;2.67;;
43325;SDS011;28920;59.862;30.636;2023-01-30T15:01:35;4.62;;;3.08;;
43325;SDS011;28920;59.862;30.636;2023-01-30T15:04:18;3.97;;;2.58;;
43325;SDS011;28920;59.862;30.636;2023-01-30T15:06:45;4.60;;;2.42;;
43325;SDS011;28920;59.862;30.636;2023-01-30T15:09:14;3.40;;;2.25;;
43325;SDS011;28920;59.862;30.636;2023-01-30T15:11:42;3.37;;;2.80;;
43325;SDS011;28920;59.862;30.636;2023-01-30T15:16:42;4.18;;;2.53;;